createdAt,value
2023-03-08T00:02:04.553Z,100113.70
2023-03-08T00:04:34.998Z,100112.66
2023-03-08T00:07:03.327Z,100105.91
2023-03-08T00:09:32.066Z,100105.13
2023-03-08T00:12:00.161Z,100103.67
2023-03-08T00:14:28.798Z,100105.20
2023-03-08T00:16:56.898Z,100102.15
2023-03-08T00:19:25.017Z,100095.91
2023-03-08T00:21:53.417Z,100092.80
2023-03-08T00:24:24.747Z,100096.11
2023-03-08T00:26:52.895Z,100094.61
2023-03-08T00:29:21.169Z,100093.13
2023-03-08T00:31:50.926Z,100094.34
2023-03-08T00:34:21.229Z,100097.47
2023-03-08T00:36:54.188Z,100100.86
2023-03-08T00:39:22.640Z,100098.23
2023-03-08T00:41:50.862Z,100095.48
2023-03-08T00:44:20.790Z,100097.73
2023-03-08T00:46:49.229Z,100100.33
2023-03-08T00:49:17.967Z,100097.69
2023-03-08T00:51:46.243Z,100096.54
2023-03-08T00:54:15.316Z,100100.00
2023-03-08T00:56:43.515Z,100098.37
2023-03-08T00:59:11.835Z,100097.34
2023-03-08T01:01:41.560Z,100098.96
2023-03-08T01:04:10.219Z,100097.14
2023-03-08T01:06:40.340Z,100099.44
2023-03-08T01:09:12.290Z,100102.80
2023-03-08T01:11:41.073Z,100103.14
2023-03-08T01:14:10.078Z,100104.67
2023-03-08T01:16:38.361Z,100111.66
2023-03-08T01:19:06.446Z,100107.73
2023-03-08T01:21:34.749Z,100108.82
2023-03-08T01:24:02.955Z,100109.37
2023-03-08T01:26:31.075Z,100110.09
2023-03-08T01:28:59.628Z,100110.81
2023-03-08T01:31:29.874Z,100105.25
2023-03-08T01:34:00.188Z,100103.58
2023-03-08T01:36:28.858Z,100096.15
2023-03-08T01:39:00.432Z,100083.34
2023-03-08T01:41:30.643Z,100080.58
2023-03-08T01:44:03.845Z,100077.15
2023-03-08T01:46:34.190Z,100074.34
2023-03-08T01:49:13.615Z,100069.58
2023-03-08T01:52:09.226Z,100076.00
2023-03-08T01:54:49.113Z,100079.20
2023-03-08T01:57:23.249Z,100075.35
2023-03-08T01:59:59.010Z,100073.42
2023-03-08T02:02:30.117Z,100072.40
2023-03-08T02:04:58.495Z,100065.13
2023-03-08T02:07:27.718Z,100070.88
2023-03-08T02:09:56.099Z,100064.42
2023-03-08T02:12:24.520Z,100056.65
2023-03-08T02:14:53.733Z,100060.19
2023-03-08T02:17:24.240Z,100056.56
2023-03-08T02:20:00.367Z,100060.19
2023-03-08T02:22:28.679Z,100064.24
2023-03-08T02:24:56.893Z,100073.31
2023-03-08T02:27:26.425Z,100076.77
2023-03-08T02:29:55.179Z,100079.19
2023-03-08T02:32:27.779Z,100081.64
2023-03-08T02:34:56.496Z,100079.48
2023-03-08T02:37:24.646Z,100088.34
2023-03-08T02:39:52.794Z,100094.25
2023-03-08T02:42:23.093Z,100100.08
2023-03-08T02:44:55.761Z,100108.00
2023-03-08T02:47:24.231Z,100109.86
2023-03-08T02:49:52.508Z,100114.52
2023-03-08T02:52:21.490Z,100118.09
2023-03-08T02:54:51.907Z,100112.45
2023-03-08T02:57:21.169Z,100105.43
2023-03-08T02:59:59.638Z,100102.73
2023-03-08T03:02:29.331Z,100106.52
2023-03-08T03:04:59.932Z,100110.80
2023-03-08T03:07:28.453Z,100112.42
2023-03-08T03:09:56.984Z,100115.22
2023-03-08T03:12:25.562Z,100115.66
2023-03-08T03:14:55.445Z,100118.73
2023-03-08T03:17:23.609Z,100127.05
2023-03-08T03:19:51.841Z,100132.14
2023-03-08T03:22:22.675Z,100130.98
2023-03-08T03:24:51.702Z,100126.98
2023-03-08T03:27:20.305Z,100127.85
2023-03-08T03:29:49.072Z,100118.73
2023-03-08T03:32:19.008Z,100115.72
2023-03-08T03:34:47.967Z,100123.06
2023-03-08T03:37:17.128Z,100127.61
2023-03-08T03:39:46.366Z,100127.61
2023-03-08T03:42:16.325Z,100127.51
2023-03-08T03:44:49.977Z,100125.55
2023-03-08T03:47:21.014Z,100125.84
2023-03-08T03:49:51.152Z,100127.10
2023-03-08T03:52:21.050Z,100128.76
2023-03-08T03:54:58.585Z,100130.95
2023-03-08T03:57:26.859Z,100131.27
2023-03-08T04:00:15.614Z,100133.83
2023-03-08T04:02:48.854Z,100131.55
2023-03-08T04:05:18.308Z,100131.59
2023-03-08T04:07:48.815Z,100134.91
2023-03-08T04:10:17.568Z,100137.17
2023-03-08T04:12:49.546Z,100138.27
2023-03-08T04:15:19.579Z,100138.10
2023-03-08T04:17:51.920Z,100142.11
2023-03-08T04:20:21.452Z,100135.85
2023-03-08T04:22:56.766Z,100127.61
2023-03-08T04:25:30.486Z,100119.95
2023-03-08T04:28:00.883Z,100108.92
2023-03-08T04:30:31.792Z,100108.16
2023-03-08T04:33:03.254Z,100113.98
2023-03-08T04:35:42.317Z,100115.82
2023-03-08T04:38:12.339Z,100110.50
2023-03-08T04:41:05.549Z,100103.30
2023-03-08T04:43:56.075Z,100116.55
2023-03-08T04:46:34.133Z,100130.84
2023-03-08T04:49:04.062Z,100120.98
2023-03-08T04:51:37.210Z,100113.34
2023-03-08T04:54:06.296Z,100109.55
2023-03-08T04:56:37.346Z,100103.61
2023-03-08T04:59:10.497Z,100101.74
2023-03-08T05:01:42.908Z,100106.23
2023-03-08T05:04:12.068Z,100112.96
2023-03-08T05:06:42.082Z,100099.79
2023-03-08T05:09:12.267Z,100089.30
2023-03-08T05:11:41.670Z,100086.87
2023-03-08T05:14:10.515Z,100091.83
2023-03-08T05:16:39.729Z,100096.46
2023-03-08T05:19:07.948Z,100095.04
2023-03-08T05:21:42.594Z,100093.77
2023-03-08T05:24:10.952Z,100097.41
2023-03-08T05:26:42.223Z,100090.94
2023-03-08T05:29:11.567Z,100090.20
2023-03-08T05:31:40.210Z,100096.77
2023-03-08T05:34:10.441Z,100112.55
2023-03-08T05:36:38.881Z,100118.20
2023-03-08T05:39:08.727Z,100125.27
2023-03-08T05:41:43.422Z,100121.27
2023-03-08T05:44:14.248Z,100115.94
2023-03-08T05:46:42.820Z,100118.82
2023-03-08T05:49:11.783Z,100121.98
2023-03-08T05:51:40.504Z,100123.61
2023-03-08T05:54:08.848Z,100103.77
2023-03-08T05:56:38.916Z,100103.59
2023-03-08T05:59:11.753Z,100102.77
2023-03-08T06:01:40.344Z,100113.60
2023-03-08T06:04:17.239Z,100120.89
2023-03-08T06:06:48.278Z,100114.83
2023-03-08T06:09:17.092Z,100106.94
2023-03-08T06:11:45.397Z,100092.52
2023-03-08T06:14:15.265Z,100079.16
2023-03-08T06:16:43.691Z,100075.92
2023-03-08T06:19:12.252Z,100064.91
2023-03-08T06:21:41.086Z,100061.54
2023-03-08T06:24:09.565Z,100052.02
2023-03-08T06:26:39.554Z,100051.05
2023-03-08T06:29:08.036Z,100052.86
2023-03-08T06:31:37.638Z,100051.38
2023-03-08T06:34:06.883Z,100052.88
2023-03-08T06:36:40.937Z,100050.49
2023-03-08T06:39:10.112Z,100053.44
2023-03-08T06:41:38.824Z,100058.71
2023-03-08T06:44:07.267Z,100056.91
2023-03-08T06:46:35.703Z,100055.54
2023-03-08T06:49:04.992Z,100053.42
2023-03-08T06:51:34.563Z,100052.52
2023-03-08T06:54:04.782Z,100047.57
2023-03-08T06:56:33.824Z,100041.80
2023-03-08T06:59:02.112Z,100036.04
2023-03-08T07:01:30.977Z,100036.27
2023-03-08T07:04:00.149Z,100038.21
2023-03-08T07:06:29.427Z,100031.75
2023-03-08T07:09:00.917Z,100030.88
2023-03-08T07:11:32.442Z,100029.39
2023-03-08T07:14:00.747Z,100031.15
2023-03-08T07:16:30.223Z,100032.60
2023-03-08T07:18:58.825Z,100028.40
2023-03-08T07:21:27.260Z,100023.03
2023-03-08T07:23:56.258Z,100014.30
2023-03-08T07:26:24.719Z,100007.96
2023-03-08T07:28:53.765Z,100005.23
2023-03-08T07:31:22.498Z,100004.45
2023-03-08T07:33:51.813Z,100004.89
2023-03-08T07:36:20.933Z,100010.07
2023-03-08T07:38:53.735Z,100018.29
2023-03-08T07:41:22.010Z,100014.22
2023-03-08T07:43:50.502Z,100015.50
2023-03-08T07:46:24.659Z,100012.98
2023-03-08T07:48:55.416Z,100005.41
2023-03-08T07:51:24.335Z,100007.14
2023-03-08T07:53:52.975Z,100003.42
2023-03-08T07:56:21.515Z,99998.00
2023-03-08T07:58:49.793Z,99998.09
2023-03-08T08:01:18.406Z,99999.98
2023-03-08T08:03:46.800Z,99997.50
2023-03-08T08:06:19.634Z,99994.67
2023-03-08T08:08:47.912Z,99990.66
2023-03-08T08:11:17.191Z,99992.30
2023-03-08T08:13:49.463Z,99996.41
2023-03-08T08:16:18.324Z,99994.52
2023-03-08T08:18:46.921Z,99998.17
2023-03-08T08:21:16.000Z,99998.03
2023-03-08T08:23:44.419Z,99996.27
2023-03-08T08:26:17.659Z,99996.48
2023-03-08T08:28:47.673Z,99998.21
2023-03-08T08:31:19.692Z,100001.19
2023-03-08T08:33:49.042Z,99993.27
2023-03-08T08:36:19.060Z,99989.88
2023-03-08T08:38:47.694Z,99983.95
2023-03-08T08:41:17.726Z,99983.14
2023-03-08T08:43:46.421Z,99976.49
2023-03-08T08:46:15.017Z,99968.65
2023-03-08T08:48:43.408Z,99965.44
2023-03-08T08:51:13.050Z,99962.36
2023-03-08T08:53:41.976Z,99961.23
2023-03-08T08:56:26.097Z,99960.91
2023-03-08T08:58:57.535Z,99967.38
2023-03-08T09:01:28.292Z,99975.82
2023-03-08T09:04:17.338Z,99969.45
2023-03-08T09:07:08.008Z,99965.40
2023-03-08T09:09:39.896Z,99967.67
2023-03-08T09:12:15.111Z,99972.52
2023-03-08T09:14:43.461Z,99974.98
2023-03-08T09:17:11.880Z,99976.41
2023-03-08T09:19:40.119Z,99979.35
2023-03-08T09:22:08.427Z,99979.24
2023-03-08T09:24:36.722Z,99978.70
2023-03-08T09:27:06.232Z,99970.02
2023-03-08T09:29:38.315Z,99968.67
2023-03-08T09:32:07.352Z,99963.98
2023-03-08T09:34:35.835Z,99960.52
2023-03-08T09:37:06.027Z,99961.40
2023-03-08T09:39:35.980Z,99959.11
2023-03-08T09:42:06.300Z,99958.77
2023-03-08T09:45:11.611Z,99960.95
2023-03-08T09:48:07.326Z,99957.32
2023-03-08T09:50:51.850Z,99959.19
2023-03-08T09:53:37.068Z,99954.39
2023-03-08T09:56:05.408Z,99951.93
2023-03-08T09:58:42.290Z,99951.11
2023-03-08T10:01:41.410Z,99949.13
2023-03-08T10:04:21.850Z,99943.89
2023-03-08T10:06:57.657Z,99949.10
2023-03-08T10:09:29.295Z,99943.41
2023-03-08T10:12:01.513Z,99936.90
2023-03-08T10:14:35.655Z,99930.85
2023-03-08T10:17:10.458Z,99927.98
2023-03-08T10:19:57.237Z,99925.87
2023-03-08T10:22:30.661Z,99918.48
2023-03-08T10:25:18.794Z,99921.08
2023-03-08T10:27:55.747Z,99920.78
2023-03-08T10:30:33.036Z,99923.52
2023-03-08T10:33:04.150Z,99920.75
2023-03-08T10:35:53.774Z,99916.44
2023-03-08T10:38:22.677Z,99914.52
2023-03-08T10:41:02.512Z,99910.95
2023-03-08T10:43:33.841Z,99907.74
2023-03-08T10:46:10.792Z,99904.64
2023-03-08T10:48:39.075Z,99902.20
2023-03-08T10:51:19.662Z,99902.10
2023-03-08T10:53:59.215Z,99909.45
2023-03-08T10:56:45.009Z,99900.80
2023-03-08T10:59:23.194Z,99898.77
2023-03-08T11:01:54.293Z,99893.16
2023-03-08T11:04:24.867Z,99895.04
2023-03-08T11:06:53.245Z,99896.83
2023-03-08T11:09:31.959Z,99896.28
2023-03-08T11:12:00.469Z,99895.36
2023-03-08T11:14:30.143Z,99892.77
2023-03-08T11:17:32.505Z,99890.96
2023-03-08T11:20:10.847Z,99885.58
2023-03-08T11:22:56.962Z,99883.18
2023-03-08T11:25:34.949Z,99886.66
2023-03-08T11:28:25.546Z,99883.85
2023-03-08T11:31:13.471Z,99887.39
2023-03-08T11:33:49.214Z,99883.38
2023-03-08T11:36:22.791Z,99882.84
2023-03-08T11:39:06.562Z,99881.44
2023-03-08T11:41:56.232Z,99883.39
2023-03-08T11:45:05.887Z,99873.05
2023-03-08T11:49:37.223Z,99873.35
2023-03-08T11:52:29.481Z,99874.86
2023-03-08T11:55:31.806Z,99867.05
2023-03-08T11:58:20.228Z,99866.05
2023-03-08T12:00:53.558Z,99857.14
2023-03-08T12:03:25.069Z,99855.96
2023-03-08T12:05:55.570Z,99858.35
2023-03-08T12:08:24.575Z,99857.92
2023-03-08T12:11:16.172Z,99859.55
2023-03-08T12:13:46.501Z,99854.83
2023-03-08T12:16:26.666Z,99853.61
2023-03-08T12:19:01.495Z,99851.58
2023-03-08T12:21:39.686Z,99853.10
2023-03-08T12:24:29.996Z,99852.48
2023-03-08T12:27:17.520Z,99852.79
2023-03-08T12:30:09.195Z,99852.98
2023-03-08T12:32:37.719Z,99857.33
2023-03-08T12:35:21.866Z,99857.79
2023-03-08T12:38:00.661Z,99858.23
2023-03-08T12:40:40.518Z,99856.45
2023-03-08T12:43:21.055Z,99857.54
2023-03-08T12:46:00.594Z,99859.31
2023-03-08T12:48:33.039Z,99858.18
2023-03-08T12:51:09.620Z,99857.39
2023-03-08T12:53:49.713Z,99860.63
2023-03-08T12:56:33.391Z,99865.91
2023-03-08T12:59:22.040Z,99870.86
2023-03-08T13:01:58.037Z,99868.86
2023-03-08T13:04:45.668Z,99865.56
2023-03-08T13:07:26.187Z,99863.08
2023-03-08T13:10:19.387Z,99865.70
2023-03-08T13:12:52.363Z,99867.30
2023-03-08T13:15:25.241Z,99867.75
2023-03-08T13:18:08.924Z,99861.90
2023-03-08T13:21:21.911Z,99862.73
2023-03-08T13:24:15.422Z,99857.15
2023-03-08T13:27:12.459Z,99852.58
2023-03-08T13:29:42.462Z,99852.09
2023-03-08T13:32:15.805Z,99846.55
2023-03-08T13:34:45.752Z,99843.59
2023-03-08T13:37:23.155Z,99844.48
2023-03-08T13:39:58.438Z,99841.44
2023-03-08T13:42:26.565Z,99841.41
2023-03-08T13:45:06.473Z,99839.73
2023-03-08T13:47:34.813Z,99841.17
2023-03-08T13:50:02.648Z,99842.61
2023-03-08T13:52:31.648Z,99844.82
2023-03-08T13:55:00.878Z,99837.11
2023-03-08T13:57:30.668Z,99838.92
2023-03-08T14:00:00.514Z,99834.39
2023-03-08T14:02:30.841Z,99832.59
2023-03-08T14:04:57.921Z,99832.30
2023-03-08T14:07:29.263Z,99833.70
2023-03-08T14:09:56.988Z,99826.77
2023-03-08T14:12:26.947Z,99832.72
2023-03-08T14:15:03.003Z,99832.85
2023-03-08T14:17:33.092Z,99828.14
2023-03-08T14:20:01.648Z,99830.30
2023-03-08T14:22:39.332Z,99829.03
2023-03-08T14:25:26.586Z,99831.16
2023-03-08T14:27:54.632Z,99827.20
2023-03-08T14:30:27.446Z,99826.08
2023-03-08T14:33:02.168Z,99823.25
2023-03-08T14:35:31.645Z,99822.64
2023-03-08T14:37:58.644Z,99825.80
2023-03-08T14:40:35.215Z,99822.67
2023-03-08T14:43:06.522Z,99822.81
2023-03-08T14:45:41.100Z,99818.19
2023-03-08T14:48:31.815Z,99813.17
2023-03-08T14:51:06.477Z,99815.48
2023-03-08T14:53:38.678Z,99814.28
2023-03-08T14:56:16.144Z,99808.69
2023-03-08T14:58:50.034Z,99807.94
2023-03-08T15:01:25.246Z,99806.83
2023-03-08T15:03:52.826Z,99811.42
2023-03-08T15:06:23.968Z,99810.85
2023-03-08T15:08:51.999Z,99811.55
2023-03-08T15:11:19.439Z,99811.91
2023-03-08T15:13:48.203Z,99810.48
2023-03-08T15:16:18.705Z,99812.49
2023-03-08T15:18:45.902Z,99811.20
2023-03-08T15:21:23.186Z,99812.23
2023-03-08T15:23:51.653Z,99814.64
2023-03-08T15:26:24.063Z,99818.63
2023-03-08T15:28:51.151Z,99818.80
2023-03-08T15:31:18.078Z,99815.76
2023-03-08T15:33:45.215Z,99815.80
2023-03-08T15:36:17.084Z,99821.02
2023-03-08T15:38:44.342Z,99820.23
2023-03-08T15:41:12.461Z,99821.23
2023-03-08T15:43:40.627Z,99822.48
2023-03-08T15:46:12.052Z,99823.11
2023-03-08T15:48:39.602Z,99827.77
2023-03-08T15:51:21.681Z,99824.53
2023-03-08T15:53:49.205Z,99825.04
2023-03-08T15:56:16.256Z,99823.79
2023-03-08T15:58:46.008Z,99820.20
2023-03-08T16:01:12.901Z,99823.59
2023-03-08T16:03:40.263Z,99820.95
2023-03-08T16:06:10.232Z,99824.38
2023-03-08T16:08:37.334Z,99824.09
2023-03-08T16:11:08.065Z,99821.56
2023-03-08T16:13:37.700Z,99824.13
2023-03-08T16:16:05.002Z,99823.73
2023-03-08T16:18:40.069Z,99825.29
2023-03-08T16:21:08.539Z,99823.73
2023-03-08T16:23:38.080Z,99821.17
2023-03-08T16:26:15.916Z,99819.64
2023-03-08T16:28:46.857Z,99824.66
2023-03-08T16:31:14.741Z,99825.58
2023-03-08T16:33:41.736Z,99829.01
2023-03-08T16:36:08.929Z,99833.95
2023-03-08T16:38:36.665Z,99836.98
2023-03-08T16:41:12.609Z,99835.83
2023-03-08T16:43:47.201Z,99839.67
2023-03-08T16:46:21.895Z,99840.14
2023-03-08T16:48:49.809Z,99844.35
2023-03-08T16:51:17.819Z,99845.83
2023-03-08T16:53:45.180Z,99846.45
2023-03-08T16:56:22.182Z,99848.29
2023-03-08T16:58:50.818Z,99853.81
2023-03-08T17:01:26.120Z,99857.14
2023-03-08T17:06:59.346Z,99852.70
2023-03-08T17:09:32.558Z,99855.99
2023-03-08T17:12:02.304Z,99857.40
2023-03-08T17:14:33.080Z,99852.13
2023-03-08T17:17:10.537Z,99854.09
2023-03-08T17:19:41.038Z,99851.83
2023-03-08T17:22:11.202Z,99847.27
2023-03-08T17:24:43.026Z,99849.00
2023-03-08T17:27:12.698Z,99853.02
2023-03-08T17:29:43.960Z,99857.98
2023-03-08T17:32:13.686Z,99859.67
2023-03-08T17:34:42.298Z,99864.25
2023-03-08T17:37:18.907Z,99871.51
2023-03-08T17:39:52.709Z,99871.29
2023-03-08T17:42:21.011Z,99877.35
2023-03-08T17:44:50.419Z,99887.26
2023-03-08T17:47:20.316Z,99883.78
2023-03-08T17:49:49.828Z,99879.96
2023-03-08T17:52:18.126Z,99875.77
2023-03-08T17:54:48.425Z,99880.65
2023-03-08T17:57:18.834Z,99877.65
2023-03-08T17:59:48.784Z,99876.52
2023-03-08T18:02:18.061Z,99873.56
2023-03-08T18:04:48.107Z,99876.04
2023-03-08T18:07:18.343Z,99877.10
2023-03-08T18:09:49.029Z,99875.36
2023-03-08T18:12:19.723Z,99871.94
2023-03-08T18:14:54.012Z,99871.05
2023-03-08T18:17:22.789Z,99873.69
2023-03-08T18:19:51.239Z,99872.52
2023-03-08T18:22:20.344Z,99875.28
2023-03-08T18:24:49.605Z,99871.17
2023-03-08T18:27:20.018Z,99872.52
2023-03-08T18:29:49.366Z,99870.55
2023-03-08T18:32:17.959Z,99877.62
2023-03-08T18:34:48.607Z,99882.59
2023-03-08T18:37:19.640Z,99885.76
2023-03-08T18:39:53.401Z,99882.86
2023-03-08T18:42:22.040Z,99881.17
2023-03-08T18:44:53.164Z,99883.13
2023-03-08T18:47:22.289Z,99881.77
2023-03-08T18:49:51.036Z,99887.19
2023-03-08T18:52:19.406Z,99889.46
2023-03-08T18:54:50.232Z,99885.27
2023-03-08T18:57:18.880Z,99882.73
2023-03-08T18:59:47.392Z,99885.25
2023-03-08T19:02:18.668Z,99889.83
2023-03-08T19:04:47.084Z,99888.92
2023-03-08T19:07:27.767Z,99885.88
2023-03-08T19:10:01.889Z,99891.46
2023-03-08T19:12:33.976Z,99888.94
2023-03-08T19:15:03.596Z,99892.32
2023-03-08T19:17:34.507Z,99892.59
2023-03-08T19:20:03.264Z,99893.97
2023-03-08T19:22:43.449Z,99900.30
2023-03-08T19:25:16.141Z,99909.09
2023-03-08T19:27:45.454Z,99907.91
2023-03-08T19:30:14.391Z,99895.44
2023-03-08T19:32:45.906Z,99901.48
2023-03-08T19:35:22.111Z,99896.09
2023-03-08T19:37:51.756Z,99899.90
2023-03-08T19:40:20.378Z,99898.37
2023-03-08T19:42:52.365Z,99899.07
2023-03-08T19:45:24.100Z,99896.38
2023-03-08T19:47:56.485Z,99895.92
2023-03-08T19:50:27.070Z,99894.08
2023-03-08T19:53:00.622Z,99897.27
2023-03-08T19:55:30.762Z,99893.38
2023-03-08T19:58:01.239Z,99890.09
2023-03-08T20:00:32.077Z,99896.98
2023-03-08T20:03:03.275Z,99899.25
2023-03-08T20:05:38.324Z,99899.98
2023-03-08T20:08:07.675Z,99908.96
2023-03-08T20:10:36.938Z,99904.17
2023-03-08T20:13:08.637Z,99902.96
2023-03-08T20:15:47.781Z,99898.87
2023-03-08T20:18:17.033Z,99894.59
2023-03-08T20:20:48.430Z,99894.62
2023-03-08T20:23:19.733Z,99895.47
2023-03-08T20:25:50.058Z,99898.66
2023-03-08T20:28:19.731Z,99895.25
2023-03-08T20:30:49.390Z,99892.81
2023-03-08T20:33:18.944Z,99888.95
2023-03-08T20:35:56.941Z,99878.52
2023-03-08T20:38:26.521Z,99877.02
2023-03-08T20:41:16.413Z,99868.85
2023-03-08T20:43:46.986Z,99864.02
2023-03-08T20:46:17.914Z,99853.42
2023-03-08T20:48:48.760Z,99860.80
2023-03-08T20:51:19.994Z,99850.85
2023-03-08T20:53:50.659Z,99838.48
2023-03-08T20:56:20.410Z,99835.26
2023-03-08T20:58:49.082Z,99838.58
2023-03-08T21:01:31.647Z,99843.63
2023-03-08T21:04:00.325Z,99853.25
2023-03-08T21:06:31.579Z,99862.74
2023-03-08T21:09:01.425Z,99876.46
2023-03-08T21:11:30.606Z,99869.25
2023-03-08T21:13:59.290Z,99862.85
2023-03-08T21:16:28.508Z,99863.67
2023-03-08T21:19:00.964Z,99860.93
2023-03-08T21:21:38.073Z,99858.14
2023-03-08T21:24:17.552Z,99856.19
2023-03-08T21:26:45.945Z,99855.83
2023-03-08T21:29:17.048Z,99859.11
2023-03-08T21:31:50.904Z,99854.66
2023-03-08T21:34:20.573Z,99848.50
2023-03-08T21:36:50.188Z,99851.86
2023-03-08T21:39:24.029Z,99852.50
2023-03-08T21:41:57.426Z,99854.52
2023-03-08T21:44:27.864Z,99849.87
2023-03-08T21:46:56.594Z,99848.42
2023-03-08T21:49:26.783Z,99842.75
2023-03-08T21:51:57.216Z,99839.31
2023-03-08T21:54:28.810Z,99835.48
2023-03-08T21:56:57.764Z,99836.75
2023-03-08T21:59:28.175Z,99840.80
2023-03-08T22:01:58.987Z,99837.86
2023-03-08T22:04:28.160Z,99839.55
2023-03-08T22:06:56.977Z,99840.98
2023-03-08T22:09:31.502Z,99842.55
2023-03-08T22:12:00.103Z,99842.06
2023-03-08T22:14:33.151Z,99841.23
2023-03-08T22:17:02.253Z,99843.21
2023-03-08T22:19:32.369Z,99853.28
2023-03-08T22:22:02.006Z,99850.63
2023-03-08T22:24:33.922Z,99850.59
2023-03-08T22:27:04.819Z,99850.08
2023-03-08T22:29:34.997Z,99852.44
2023-03-08T22:32:04.816Z,99850.52
2023-03-08T22:34:34.662Z,99854.09
2023-03-08T22:37:05.220Z,99854.17
2023-03-08T22:39:34.279Z,99847.11
2023-03-08T22:42:03.785Z,99844.54
2023-03-08T22:44:32.174Z,99850.88
2023-03-08T22:47:01.109Z,99852.02
2023-03-08T22:49:29.747Z,99845.48
2023-03-08T22:51:58.125Z,99846.26
2023-03-08T22:54:26.856Z,99846.13
2023-03-08T22:56:56.634Z,99840.82
2023-03-08T22:59:25.927Z,99843.25
2023-03-08T23:01:54.946Z,99852.52
2023-03-08T23:04:23.279Z,99849.61
2023-03-08T23:06:51.897Z,99855.48
2023-03-08T23:09:21.573Z,99858.84
2023-03-08T23:11:53.964Z,99858.09
2023-03-08T23:14:23.925Z,99861.80
2023-03-08T23:16:52.747Z,99856.83
2023-03-08T23:19:21.305Z,99858.49
2023-03-08T23:22:10.638Z,99861.48
2023-03-08T23:24:41.756Z,99864.91
2023-03-08T23:27:09.976Z,99873.29
2023-03-08T23:29:38.254Z,99878.33
2023-03-08T23:32:07.585Z,99882.05
2023-03-08T23:34:37.005Z,99881.26
2023-03-08T23:37:05.925Z,99882.31
2023-03-08T23:39:37.548Z,99883.62
2023-03-08T23:42:06.374Z,99898.71
2023-03-08T23:44:37.618Z,99917.86
2023-03-08T23:47:06.699Z,99918.95
2023-03-08T23:49:36.984Z,99910.24
2023-03-08T23:52:05.204Z,99922.82
2023-03-08T23:54:36.053Z,99927.27
2023-03-08T23:57:04.287Z,99925.23
2023-03-08T23:59:32.593Z,99925.75
